Hope Valley, California
Current Conditions -  °F | °C
As of 10:53 PM on Tuesday 25 Nov 2014 (Local Time) from KTVL Reporting Station
Clear Clear  
Wind Chill: 31°   Ceiling: Unl
Heat Index: 31°   Visibility: 10mi
Dew Point: 24°   Wind: 3mph
Humidity: 76%   Direction: 170°S
Pressure: 30.53"   Gusts: NA
Location:  38.6924°N, 119.835°W
Report Text: KTVL 260653Z AUTO 17003KT 10SM CLR M01/M04 A3053 RMK AO2 SLP326 T10061044
Loading
Personal Weather Stations






























Interactive Weather Map New forecast layout! Learn more

10-Day Weather Forecast

Advertisements
Track Severe Weather on mobile